Time;durP1;ratioP1;P1;durP2;ratioP2;P2;SDS_P1;SDS_P2;PMS_P1;PMS_P2;Temp;Humidity;BMP_temperature;BMP_pressure;BME280_temperature;BME280_humidity;BME280_pressure;Samples;Min_cycle;Max_cycle;Signal;HPM_P1;HPM_P2
2021/03/25 00:00:23;;;;;;;13.90;8.00;;;12.80;39.00;;;;;;5076026;28;20868;-92
2021/03/25 00:02:50;;;;;;;16.73;9.53;;;12.90;38.10;;;;;;5077130;28;20467;-92
2021/03/25 00:05:16;;;;;;;13.40;7.23;;;12.50;36.70;;;;;;5078885;28;20457;-91
2021/03/25 00:07:44;;;;;;;13.73;7.70;;;12.10;39.20;;;;;;5100468;28;20445;-86
2021/03/25 00:10:14;;;;;;;11.83;7.50;;;12.50;40.30;;;;;;5101123;28;20476;-87
2021/03/25 00:12:41;;;;;;;12.70;7.60;;;12.80;39.60;;;;;;5100407;28;20474;-86
2021/03/25 00:15:08;;;;;;;13.10;8.30;;;13.10;39.10;;;;;;5100948;28;20503;-89
2021/03/25 00:17:35;;;;;;;20.03;8.67;;;12.90;36.50;;;;;;5100487;28;20432;-88
2021/03/25 00:20:01;;;;;;;13.17;8.33;;;12.50;35.90;;;;;;5100314;28;20416;-87
2021/03/25 00:22:28;;;;;;;15.53;8.83;;;12.60;38.70;;;;;;5099303;28;20473;-91
2021/03/25 00:24:55;;;;;;;15.83;8.00;;;12.50;36.40;;;;;;5100075;28;20505;-90
2021/03/25 00:27:22;;;;;;;14.87;7.67;;;12.40;38.10;;;;;;5091387;28;20434;-91
2021/03/25 00:29:48;;;;;;;12.03;7.60;;;12.40;38.70;;;;;;5088027;28;20425;-91
2021/03/25 00:32:14;;;;;;;11.13;6.30;;;12.70;40.00;;;;;;5098727;28;20587;-91
2021/03/25 00:34:41;;;;;;;12.13;7.20;;;13.00;39.70;;;;;;5099233;28;20475;-90
2021/03/25 00:37:07;;;;;;;14.40;8.30;;;13.30;38.40;;;;;;5079661;28;20439;-91
2021/03/25 00:39:34;;;;;;;16.13;9.10;;;13.00;34.90;;;;;;5076780;28;20495;-92
2021/03/25 00:42:01;;;;;;;16.00;8.87;;;12.00;34.50;;;;;;5076218;28;20476;-92
2021/03/25 00:44:27;;;;;;;15.63;8.93;;;11.20;37.60;;;;;;5076827;28;20446;-92
2021/03/25 00:46:54;;;;;;;12.77;7.90;;;10.90;38.50;;;;;;5076360;28;20463;-91
2021/03/25 00:49:22;;;;;;;20.00;8.57;;;11.20;40.20;;;;;;5075816;28;20494;-92
2021/03/25 00:51:49;;;;;;;13.07;7.80;;;11.30;38.80;;;;;;5076727;28;20822;-92
2021/03/25 00:54:15;;;;;;;11.63;7.53;;;11.60;41.40;;;;;;5086889;28;20471;-90
2021/03/25 00:56:42;;;;;;;14.37;8.40;;;11.90;40.30;;;;;;5096188;28;20436;-91
2021/03/25 00:59:09;;;;;;;24.80;8.60;;;12.40;39.80;;;;;;5092413;28;20452;-91
2021/03/25 01:01:36;;;;;;;11.83;7.77;;;12.70;38.90;;;;;;5086144;28;20470;-91
2021/03/25 01:04:03;;;;;;;17.27;7.40;;;12.50;38.80;;;;;;5077318;28;20509;-92
2021/03/25 01:06:29;;;;;;;13.47;7.37;;;12.80;39.40;;;;;;5077096;28;20741;-90
2021/03/25 01:08:55;;;;;;;16.77;9.00;;;12.90;39.50;;;;;;5076443;28;20502;-91
2021/03/25 01:11:26;;;;;;;12.40;7.80;;;12.80;34.80;;;;;;5076120;28;20492;-91
2021/03/25 01:13:54;;;;;;;13.40;8.30;;;11.80;36.40;;;;;;5075528;28;20446;-92
2021/03/25 01:16:33;;;;;;;15.53;8.50;;;11.00;37.50;;;;;;5075509;28;20447;-90
2021/03/25 01:19:01;;;;;;;13.17;8.67;;;10.60;38.30;;;;;;5075793;28;20419;-91
2021/03/25 01:21:28;;;;;;;13.70;8.50;;;10.10;39.90;;;;;;5075824;28;20451;-90
2021/03/25 01:23:55;;;;;;;14.30;8.63;;;10.10;39.40;;;;;;5075999;28;20431;-90
2021/03/25 01:26:21;;;;;;;12.93;8.23;;;10.10;40.10;;;;;;5075625;28;20523;-90
2021/03/25 01:28:47;;;;;;;17.70;8.30;;;10.10;40.20;;;;;;5075471;28;20450;-90
2021/03/25 01:31:14;;;;;;;14.70;9.20;;;9.50;42.60;;;;;;5075624;28;20452;-90
2021/03/25 01:33:41;;;;;;;22.20;8.53;;;9.30;43.60;;;;;;5074516;28;20565;-90
2021/03/25 01:36:08;;;;;;;14.70;8.73;;;9.40;43.30;;;;;;5076064;28;20916;-90
2021/03/25 01:38:34;;;;;;;18.40;8.20;;;9.60;43.00;;;;;;5075422;28;20504;-91
2021/03/25 01:41:02;;;;;;;15.00;8.80;;;10.00;41.80;;;;;;5076026;28;21057;-91
2021/03/25 01:43:33;;;;;;;10.77;7.10;;;10.30;41.10;;;;;;5055840;28;20906;-91
2021/03/25 01:46:13;;;;;;;13.20;9.07;;;10.40;42.10;;;;;;5075478;28;20436;-90
2021/03/25 01:48:42;;;;;;;15.00;7.63;;;10.30;39.50;;;;;;5075102;28;20442;-91
2021/03/25 01:51:17;;;;;;;19.37;9.57;;;9.90;41.20;;;;;;5081737;28;20459;-90
2021/03/25 01:54:34;;;;;;;17.30;8.50;;;9.70;40.80;;;;;;5076590;28;20486;-90
2021/03/25 01:57:23;;;;;;;11.57;7.90;;;9.60;41.20;;;;;;5076009;28;20491;-91
2021/03/25 02:00:11;;;;;;;14.63;8.27;;;9.50;43.10;;;;;;5074736;28;20424;-92
2021/03/25 02:02:43;;;;;;;13.77;7.00;;;9.90;42.20;;;;;;5074404;28;20466;-91
2021/03/25 02:05:22;;;;;;;12.63;7.30;;;10.40;42.30;;;;;;5074929;28;20511;-92
2021/03/25 02:08:02;;;;;;;13.70;8.43;;;10.90;41.50;;;;;;5074514;28;20467;-91
2021/03/25 02:10:39;;;;;;;13.77;8.83;;;11.00;40.60;;;;;;5074729;28;20446;-91
2021/03/25 02:13:16;;;;;;;13.00;7.53;;;10.90;40.00;;;;;;5074765;28;20451;-91
2021/03/25 02:15:49;;;;;;;14.30;8.10;;;10.90;40.50;;;;;;5055021;28;20908;-91
2021/03/25 02:18:21;;;;;;;25.20;7.60;;;10.90;38.70;;;;;;5054706;28;20523;-90
2021/03/25 02:21:19;;;;;;;22.67;8.53;;;11.00;40.40;;;;;;5054770;28;20488;-91
2021/03/25 02:24:08;;;;;;;16.20;8.90;;;10.70;40.20;;;;;;5054117;28;20929;-91
2021/03/25 02:26:38;;;;;;;17.53;8.10;;;10.20;41.60;;;;;;5053808;28;20409;-91
2021/03/25 02:29:39;;;;;;;11.17;6.97;;;9.70;41.90;;;;;;5063697;28;20618;-91
2021/03/25 02:32:12;;;;;;;15.60;8.77;;;10.00;42.10;;;;;;5068980;28;20466;-91
2021/03/25 02:34:43;;;;;;;11.70;8.00;;;10.20;39.10;;;;;;5074128;28;20502;-91
2021/03/25 02:37:12;;;;;;;15.70;8.10;;;10.30;39.60;;;;;;5074023;28;20433;-91
2021/03/25 02:39:46;;;;;;;10.30;7.77;;;10.10;41.00;;;;;;5073970;28;20531;-92
2021/03/25 02:42:17;;;;;;;14.90;7.50;;;9.70;42.40;;;;;;5074132;28;20499;-92
2021/03/25 02:44:48;;;;;;;12.00;7.87;;;9.80;43.60;;;;;;5073625;28;20412;-91
2021/03/25 02:47:19;;;;;;;11.30;7.27;;;10.30;42.00;;;;;;5074097;28;20526;-91
2021/03/25 02:49:51;;;;;;;14.07;7.77;;;10.30;41.20;;;;;;5073808;28;20884;-92
2021/03/25 02:52:20;;;;;;;14.13;7.53;;;10.30;40.80;;;;;;5073660;28;20476;-92
2021/03/25 02:54:48;;;;;;;10.30;6.67;;;10.70;41.70;;;;;;5073173;28;20518;-92
2021/03/25 02:57:18;;;;;;;11.50;6.23;;;11.20;41.80;;;;;;5073595;28;20984;-92
2021/03/25 02:59:47;;;;;;;13.17;6.80;;;11.70;40.60;;;;;;5073722;28;20467;-92
2021/03/25 03:02:21;;;;;;;16.00;7.10;;;11.80;40.50;;;;;;5073402;28;20520;-90
2021/03/25 03:04:51;;;;;;;12.67;7.90;;;11.70;39.10;;;;;;5073932;28;20491;-90
2021/03/25 03:07:22;;;;;;;14.13;8.37;;;11.80;39.40;;;;;;5073463;28;20466;-90
2021/03/25 03:09:53;;;;;;;10.80;6.77;;;12.00;39.80;;;;;;5073143;28;20436;-91
2021/03/25 03:12:24;;;;;;;11.33;7.10;;;12.10;40.50;;;;;;5073740;28;20550;-90
2021/03/25 03:14:55;;;;;;;18.60;7.67;;;12.20;39.30;;;;;;5053713;28;20508;-91
2021/03/25 03:17:30;;;;;;;11.17;6.70;;;11.70;38.00;;;;;;5073538;28;20412;-91
2021/03/25 03:20:01;;;;;;;15.63;7.40;;;11.30;38.70;;;;;;5073304;28;20469;-91
2021/03/25 03:22:28;;;;;;;22.03;7.83;;;11.50;39.40;;;;;;5073502;28;20475;-92
2021/03/25 03:24:54;;;;;;;16.60;7.20;;;11.80;40.30;;;;;;5073348;28;20518;-92
2021/03/25 03:27:25;;;;;;;14.03;7.20;;;12.00;39.80;;;;;;5073482;28;20443;-90
2021/03/25 03:29:54;;;;;;;12.50;6.83;;;12.20;39.90;;;;;;5074465;28;20426;-91
2021/03/25 03:32:29;;;;;;;10.30;7.13;;;12.30;40.10;;;;;;5073669;28;20524;-90
2021/03/25 03:34:59;;;;;;;14.17;6.70;;;12.40;40.20;;;;;;5074437;28;20466;-91
2021/03/25 03:37:32;;;;;;;10.50;6.60;;;12.60;39.90;;;;;;5075841;28;20453;-91
2021/03/25 03:40:01;;;;;;;12.93;8.00;;;12.70;39.40;;;;;;5079964;28;20455;-92
2021/03/25 03:42:28;;;;;;;12.97;7.17;;;12.70;39.40;;;;;;5079286;28;21035;-91
2021/03/25 03:44:58;;;;;;;9.20;5.90;;;12.60;39.20;;;;;;5080713;28;20460;-90
2021/03/25 03:47:29;;;;;;;8.30;5.90;;;12.70;39.30;;;;;;5079421;28;20451;-91
2021/03/25 03:50:02;;;;;;;8.30;5.33;;;12.70;39.20;;;;;;5080406;28;20427;-91
2021/03/25 03:52:33;;;;;;;10.13;6.20;;;12.60;38.90;;;;;;5079250;28;20513;-91
2021/03/25 03:55:00;;;;;;;11.23;6.27;;;12.50;37.70;;;;;;5079496;28;20490;-91
2021/03/25 03:57:36;;;;;;;10.30;6.90;;;11.90;37.10;;;;;;5079168;28;20857;-91
2021/03/25 04:00:07;;;;;;;12.07;6.50;;;11.60;38.70;;;;;;5078893;28;20451;-91
2021/03/25 04:02:40;;;;;;;16.47;7.20;;;11.40;38.50;;;;;;5079687;28;20495;-90
2021/03/25 04:05:14;;;;;;;11.93;6.43;;;11.60;39.80;;;;;;5079388;28;20432;-91
2021/03/25 04:07:45;;;;;;;11.10;6.30;;;11.90;40.10;;;;;;5080809;28;20476;-91
2021/03/25 04:10:14;;;;;;;15.77;6.83;;;12.00;40.30;;;;;;5079222;28;20461;-91
2021/03/25 04:12:47;;;;;;;13.27;7.60;;;12.00;39.90;;;;;;5079042;28;20913;-91
2021/03/25 04:15:18;;;;;;;10.00;6.43;;;12.00;37.80;;;;;;5078647;28;20549;-92
2021/03/25 04:17:48;;;;;;;10.40;7.17;;;12.00;39.60;;;;;;5080252;28;20435;-91
2021/03/25 04:20:18;;;;;;;8.97;6.30;;;11.90;37.10;;;;;;5078919;28;20432;-91
2021/03/25 04:22:49;;;;;;;11.00;6.60;;;11.70;38.40;;;;;;5079903;28;20466;-91
2021/03/25 04:25:21;;;;;;;7.50;5.60;;;11.40;39.30;;;;;;5078689;28;20508;-91
2021/03/25 04:27:53;;;;;;;9.33;6.50;;;11.40;38.50;;;;;;5079604;28;20868;-92
2021/03/25 04:30:24;;;;;;;13.23;6.37;;;11.40;39.30;;;;;;5078774;28;20518;-92
2021/03/25 04:32:52;;;;;;;11.60;6.30;;;10.90;38.90;;;;;;5080341;28;20420;-91
2021/03/25 04:35:21;;;;;;;10.60;7.13;;;11.00;41.20;;;;;;5079192;28;20515;-91
2021/03/25 04:37:49;;;;;;;11.00;6.40;;;10.90;40.50;;;;;;5079398;28;20461;-92
2021/03/25 04:40:20;;;;;;;13.10;7.80;;;11.10;39.70;;;;;;5078882;28;20526;-91
2021/03/25 04:42:48;;;;;;;10.63;6.63;;;11.30;40.60;;;;;;5079056;28;20507;-90
2021/03/25 04:45:25;;;;;;;12.23;7.97;;;11.60;41.30;;;;;;5079090;28;20448;-90
2021/03/25 04:47:57;;;;;;;18.73;6.50;;;11.90;40.70;;;;;;5081446;28;20460;-90
2021/03/25 04:50:25;;;;;;;10.77;6.43;;;11.90;40.90;;;;;;5081632;28;20503;-91
2021/03/25 04:53:02;;;;;;;10.83;6.70;;;11.80;38.50;;;;;;5084417;28;20412;-91
2021/03/25 04:55:32;;;;;;;12.40;7.70;;;11.30;39.50;;;;;;5082349;28;20564;-91
2021/03/25 04:58:00;;;;;;;19.17;8.10;;;10.90;37.30;;;;;;5080416;28;20463;-92
2021/03/25 05:00:29;;;;;;;12.20;7.13;;;9.90;40.10;;;;;;5079257;28;20435;-92
2021/03/25 05:02:57;;;;;;;15.87;9.90;;;9.30;41.90;;;;;;5080848;28;20555;-91
2021/03/25 05:05:27;;;;;;;15.03;7.13;;;8.50;42.60;;;;;;5078901;28;20520;-91
2021/03/25 05:08:00;;;;;;;13.13;7.90;;;8.30;46.30;;;;;;5079988;28;20420;-91
2021/03/25 05:10:39;;;;;;;13.20;7.50;;;8.30;44.10;;;;;;5078714;28;20902;-91
2021/03/25 05:13:06;;;;;;;14.70;7.63;;;8.10;44.60;;;;;;5079157;28;20455;-91
2021/03/25 05:15:34;;;;;;;17.10;8.00;;;7.90;46.20;;;;;;5083279;28;20479;-90
2021/03/25 05:18:13;;;;;;;19.77;8.10;;;8.20;46.20;;;;;;5094162;28;20443;-89
2021/03/25 05:20:41;;;;;;;17.97;8.07;;;8.10;44.90;;;;;;5093569;28;20451;-88
2021/03/25 05:23:17;;;;;;;10.57;7.03;;;7.60;46.00;;;;;;5094181;28;20450;-89
2021/03/25 05:25:48;;;;;;;14.10;7.40;;;7.60;46.10;;;;;;5092215;28;20438;-89
2021/03/25 05:28:18;;;;;;;10.10;7.33;;;8.60;46.80;;;;;;5073194;28;20417;-88
2021/03/25 05:30:48;;;;;;;16.07;7.77;;;9.50;45.90;;;;;;5074187;28;20468;-88
2021/03/25 05:33:19;;;;;;;14.03;7.53;;;10.10;41.70;;;;;;5093928;28;20439;-89
2021/03/25 05:35:49;;;;;;;11.73;7.90;;;10.10;40.40;;;;;;5095935;28;20470;-89
2021/03/25 05:38:15;;;;;;;8.90;6.77;;;10.50;41.00;;;;;;5097124;28;20449;-89
2021/03/25 05:40:49;;;;;;;10.70;6.37;;;10.90;42.40;;;;;;5095797;28;20435;-91
2021/03/25 05:43:41;;;;;;;9.23;6.70;;;11.40;42.00;;;;;;5091518;28;20435;-90
2021/03/25 05:46:21;;;;;;;11.13;7.30;;;11.70;41.90;;;;;;5077520;28;20439;-91
2021/03/25 05:49:12;;;;;;;14.27;7.23;;;12.20;39.90;;;;;;5077118;28;20895;-90
2021/03/25 05:51:51;;;;;;;13.23;7.60;;;12.40;37.60;;;;;;5076117;28;20586;-90
2021/03/25 05:57:39;;;;;;;10.70;7.50;;;11.70;38.40;;;;;;5076789;28;20432;-88
2021/03/25 06:00:26;;;;;;;11.60;7.27;;;12.00;36.60;;;;;;5080478;28;20456;-89
2021/03/25 06:02:59;;;;;;;14.23;6.30;;;12.20;38.30;;;;;;5079121;28;20442;-90
2021/03/25 06:05:28;;;;;;;15.80;6.93;;;12.40;34.90;;;;;;5080508;28;20929;-88
2021/03/25 06:08:20;;;;;;;12.03;7.10;;;11.80;36.50;;;;;;5042193;28;20797;-88
2021/03/25 06:11:04;;;;;;;14.23;8.03;;;11.30;36.60;;;;;;5077980;28;20487;-89
2021/03/25 06:14:02;;;;;;;14.53;8.17;;;10.80;36.10;;;;;;5060266;28;20484;-90
2021/03/25 06:16:58;;;;;;;11.30;6.70;;;10.50;37.50;;;;;;5045298;28;20538;-90
2021/03/25 06:19:48;;;;;;;21.50;8.60;;;10.70;37.30;;;;;;5060371;28;20974;-91
2021/03/25 06:22:21;;;;;;;11.30;7.80;;;11.10;36.40;;;;;;5066514;28;20897;-88
2021/03/25 06:25:45;;;;;;;11.30;7.60;;;11.40;36.10;;;;;;4389438;27;21468097;-90
2021/03/25 06:32:05;;;;;;;11.80;7.47;;;12.20;36.70;;;;;;5073772;28;20892;-89
2021/03/25 06:34:43;;;;;;;13.70;7.93;;;12.70;34.70;;;;;;5091864;28;20449;-90
2021/03/25 06:37:18;;;;;;;22.57;8.83;;;12.70;32.60;;;;;;5093446;28;20461;-89
2021/03/25 06:42:57;;;;;;;13.70;7.50;;;12.90;33.80;;;;;;5031217;28;20571;-90
2021/03/25 06:45:29;;;;;;;17.40;6.83;;;13.30;34.50;;;;;;5051564;28;20437;-87
2021/03/25 06:48:01;;;;;;;15.93;7.77;;;13.60;32.10;;;;;;5052958;28;20456;-85
2021/03/25 06:50:32;;;;;;;13.50;7.50;;;13.70;31.50;;;;;;5052047;28;20441;-87
2021/03/25 06:53:14;;;;;;;10.40;7.73;;;13.50;33.00;;;;;;5047992;28;20441;-89
2021/03/25 06:55:41;;;;;;;16.07;8.00;;;13.20;33.20;;;;;;5034924;28;20532;-90
2021/03/25 06:58:13;;;;;;;12.47;7.53;;;13.40;31.70;;;;;;5061487;28;20455;-89
2021/03/25 07:00:46;;;;;;;15.43;7.77;;;13.60;32.00;;;;;;5117790;27;20458;-87
2021/03/25 07:03:17;;;;;;;14.57;8.73;;;14.00;31.80;;;;;;5155201;27;20442;-89
2021/03/25 07:05:45;;;;;;;12.00;8.20;;;14.00;31.70;;;;;;5154222;27;20425;-88
2021/03/25 07:08:17;;;;;;;16.27;8.73;;;14.10;31.90;;;;;;5141638;28;20899;-90
2021/03/25 07:10:44;;;;;;;10.27;7.77;;;14.20;32.00;;;;;;5132450;28;21004;-90
2021/03/25 07:13:17;;;;;;;10.27;7.27;;;14.00;32.20;;;;;;5131477;27;20637;-90
2021/03/25 07:15:45;;;;;;;11.40;7.73;;;13.70;32.50;;;;;;5151344;27;20547;-87
2021/03/25 07:18:26;;;;;;;14.23;8.07;;;13.30;33.80;;;;;;5151956;27;20965;-88
2021/03/25 07:21:28;;;;;;;13.73;8.07;;;12.80;35.20;;;;;;5113971;27;20900;-89
2021/03/25 07:23:56;;;;;;;12.50;7.87;;;13.10;34.50;;;;;;5140289;27;20476;-89
2021/03/25 07:26:31;;;;;;;14.30;8.00;;;13.50;33.80;;;;;;5132538;28;20941;-89
2021/03/25 07:29:00;;;;;;;13.40;8.50;;;13.60;34.10;;;;;;5136721;28;20500;-89
2021/03/25 07:31:35;;;;;;;13.93;8.37;;;13.80;33.30;;;;;;5139712;28;20488;-90
2021/03/25 07:34:01;;;;;;;12.60;7.27;;;14.50;32.20;;;;;;5136170;28;20430;-90
2021/03/25 07:36:28;;;;;;;19.00;8.73;;;15.20;31.10;;;;;;5118872;28;20448;-89
2021/03/25 07:39:04;;;;;;;13.53;8.83;;;15.50;30.00;;;;;;5116562;28;20856;-89
2021/03/25 07:41:33;;;;;;;15.47;7.17;;;16.50;29.30;;;;;;5116959;28;20472;-89
2021/03/25 07:44:02;;;;;;;12.40;8.10;;;17.00;29.30;;;;;;5120414;28;20481;-89
2021/03/25 07:46:37;;;;;;;12.50;7.57;;;17.20;28.60;;;;;;5120731;28;20453;-90
2021/03/25 07:49:15;;;;;;;12.97;6.70;;;17.70;28.30;;;;;;5120776;28;20437;-90
2021/03/25 07:51:47;;;;;;;9.70;7.00;;;18.20;28.10;;;;;;5120462;28;20474;-88
2021/03/25 07:54:17;;;;;;;15.77;9.03;;;18.20;28.30;;;;;;5119705;28;20473;-88
2021/03/25 07:56:58;;;;;;;18.27;7.70;;;18.40;27.20;;;;;;5118233;28;20477;-88
2021/03/25 07:59:43;;;;;;;11.10;7.60;;;18.50;26.50;;;;;;5119610;28;20725;-88
2021/03/25 08:02:33;;;;;;;15.63;6.70;;;18.90;26.60;;;;;;5119340;28;20507;-88
2021/03/25 08:05:16;;;;;;;15.03;8.20;;;19.40;26.30;;;;;;5117744;28;20548;-89
2021/03/25 08:07:44;;;;;;;14.10;6.60;;;18.90;25.90;;;;;;5118700;28;20429;-89
2021/03/25 08:10:36;;;;;;;14.70;8.40;;;18.50;26.70;;;;;;5119994;28;20465;-88
2021/03/25 08:13:15;;;;;;;12.13;7.77;;;18.60;26.80;;;;;;5118546;28;20902;-89
2021/03/25 08:15:44;;;;;;;12.80;7.50;;;19.10;26.50;;;;;;5119015;28;20463;-88
2021/03/25 08:18:31;;;;;;;13.53;7.90;;;19.10;26.40;;;;;;5118123;28;20449;-88
2021/03/25 08:21:11;;;;;;;11.90;6.73;;;18.70;26.90;;;;;;5118124;28;21042;-88
2021/03/25 08:24:12;;;;;;;10.50;7.17;;;18.30;27.70;;;;;;5119661;28;20461;-90
2021/03/25 08:26:49;;;;;;;9.90;6.77;;;18.20;27.50;;;;;;5118667;28;20420;-89
2021/03/25 08:29:22;;;;;;;9.30;5.93;;;17.70;28.30;;;;;;5132604;27;20910;-89
2021/03/25 08:32:01;;;;;;;15.80;7.17;;;18.20;27.70;;;;;;5139059;27;20570;-89
2021/03/25 08:34:42;;;;;;;16.23;7.20;;;18.40;27.40;;;;;;5126570;27;20461;-89
2021/03/25 08:37:37;;;;;;;12.57;7.03;;;18.90;27.40;;;;;;5117375;28;20410;-89
2021/03/25 08:40:08;;;;;;;14.00;7.27;;;19.10;26.70;;;;;;5098218;28;20432;-88
2021/03/25 08:42:39;;;;;;;13.17;6.77;;;19.00;27.30;;;;;;5100291;28;20835;-89
2021/03/25 08:45:20;;;;;;;11.20;6.03;;;19.10;26.50;;;;;;5118311;28;20442;-89
2021/03/25 08:47:54;;;;;;;9.00;6.20;;;19.00;26.80;;;;;;5118033;28;20434;-88
2021/03/25 08:50:41;;;;;;;9.40;6.30;;;19.40;26.60;;;;;;5121714;27;20489;-89
2021/03/25 08:53:22;;;;;;;14.63;7.33;;;18.90;27.30;;;;;;5130161;27;20524;-89
2021/03/25 08:55:52;;;;;;;9.87;6.37;;;18.40;27.40;;;;;;5117094;28;20428;-89
2021/03/25 08:58:20;;;;;;;10.93;6.57;;;18.10;28.60;;;;;;5117528;28;20509;-89
2021/03/25 09:00:50;;;;;;;11.77;7.03;;;18.10;28.60;;;;;;5119986;28;20499;-88
2021/03/25 09:03:21;;;;;;;12.90;7.37;;;18.10;28.40;;;;;;5118582;28;20626;-89
2021/03/25 09:05:58;;;;;;;11.13;7.30;;;17.50;28.20;;;;;;5118487;28;20457;-89
2021/03/25 09:08:26;;;;;;;10.57;6.60;;;17.00;30.00;;;;;;5131718;27;20765;-89
2021/03/25 09:10:55;;;;;;;10.17;6.77;;;17.30;29.30;;;;;;5125164;27;20477;-89
2021/03/25 09:13:24;;;;;;;16.20;6.73;;;17.50;29.20;;;;;;5118204;28;20591;-89
2021/03/25 09:15:53;;;;;;;11.53;5.83;;;17.60;29.60;;;;;;5118173;28;20514;-89
2021/03/25 09:18:22;;;;;;;9.90;6.30;;;17.50;28.60;;;;;;5116253;28;20808;-89
2021/03/25 09:20:54;;;;;;;13.53;6.57;;;17.20;29.10;;;;;;5118343;28;20519;-89
2021/03/25 09:23:45;;;;;;;9.37;7.10;;;16.90;29.60;;;;;;5115713;28;20983;-89
2021/03/25 09:26:49;;;;;;;9.80;6.73;;;16.70;29.40;;;;;;5116907;28;20568;-89
2021/03/25 09:29:17;;;;;;;21.03;7.53;;;17.50;29.00;;;;;;5096529;28;20446;-89
2021/03/25 09:32:34;;;;;;;14.27;7.27;;;18.10;28.60;;;;;;5096376;28;20470;-89
2021/03/25 09:35:03;;;;;;;18.50;6.97;;;18.50;28.40;;;;;;5102929;28;20433;-89
2021/03/25 09:37:33;;;;;;;11.97;6.50;;;18.60;28.30;;;;;;5117212;28;20445;-89
2021/03/25 09:43:35;;;;;;;18.43;7.00;;;18.80;28.00;;;;;;5096198;28;20551;-89
2021/03/25 09:46:35;;;;;;;10.67;6.70;;;18.70;27.90;;;;;;5096225;28;20430;-90
2021/03/25 09:49:27;;;;;;;7.97;5.87;;;18.60;28.90;;;;;;5074760;28;20428;-87
2021/03/25 09:52:26;;;;;;;16.50;7.10;;;18.50;28.90;;;;;;5079692;28;20471;-88
2021/03/25 09:55:23;;;;;;;12.97;6.53;;;18.80;27.70;;;;;;5095859;28;20454;-89
2021/03/25 09:57:54;;;;;;;11.40;6.80;;;18.70;27.80;;;;;;5095449;28;20446;-90
2021/03/25 10:00:56;;;;;;;12.83;6.53;;;19.00;27.10;;;;;;5084650;28;20533;-89
2021/03/25 10:04:02;;;;;;;20.00;7.60;;;19.30;27.90;;;;;;5074777;28;20877;-90
2021/03/25 10:07:03;;;;;;;15.50;7.03;;;19.30;28.00;;;;;;5077309;28;20424;-87
2021/03/25 10:10:05;;;;;;;10.40;6.30;;;19.40;27.50;;;;;;5079452;28;20477;-88
2021/03/25 10:13:25;;;;;;;14.93;7.17;;;19.40;26.90;;;;;;5005861;28;20461;-89
2021/03/25 10:15:57;;;;;;;14.93;6.30;;;19.20;27.50;;;;;;5035340;28;20446;-89
2021/03/25 10:18:58;;;;;;;15.97;6.90;;;19.50;28.10;;;;;;5095095;28;20450;-89
2021/03/25 10:22:04;;;;;;;15.80;7.40;;;19.80;26.60;;;;;;5098659;28;20472;-89
2021/03/25 10:24:37;;;;;;;14.43;6.23;;;20.10;26.30;;;;;;5095600;28;20470;-89
2021/03/25 10:27:21;;;;;;;11.57;5.57;;;20.40;26.20;;;;;;5096790;28;20438;-87
2021/03/25 10:29:50;;;;;;;14.60;6.20;;;20.40;26.10;;;;;;5086549;28;20446;-89
2021/03/25 10:32:27;;;;;;;10.90;5.43;;;19.90;26.30;;;;;;5104771;28;20466;-89
2021/03/25 10:34:57;;;;;;;11.87;5.93;;;19.80;25.90;;;;;;5095875;28;20406;-88
2021/03/25 10:37:32;;;;;;;11.90;6.13;;;19.60;26.50;;;;;;5099199;28;20434;-87
2021/03/25 10:40:06;;;;;;;12.00;6.10;;;20.20;25.80;;;;;;5100117;28;20448;-88
2021/03/25 10:42:36;;;;;;;24.73;6.60;;;20.50;25.00;;;;;;5095575;28;20684;-89
2021/03/25 10:45:22;;;;;;;14.10;6.10;;;20.60;24.40;;;;;;5096149;28;21037;-88
2021/03/25 10:47:55;;;;;;;14.60;6.80;;;20.80;24.60;;;;;;5095388;28;20855;-88
2021/03/25 10:50:29;;;;;;;15.53;7.60;;;20.70;25.10;;;;;;5096781;28;20492;-89
2021/03/25 10:53:00;;;;;;;10.20;5.67;;;20.90;24.20;;;;;;5096198;28;20480;-88
2021/03/25 10:55:30;;;;;;;25.17;7.30;;;20.90;24.10;;;;;;5095691;28;20438;-89
2021/03/25 10:58:00;;;;;;;14.00;6.33;;;21.10;23.60;;;;;;5096106;28;20482;-88
2021/03/25 11:00:30;;;;;;;7.00;4.20;;;21.00;24.30;;;;;;5095206;28;20422;-88
2021/03/25 11:02:58;;;;;;;16.03;5.97;;;21.40;25.60;;;;;;5095069;28;20959;-88
2021/03/25 11:05:26;;;;;;;12.57;5.70;;;21.50;23.50;;;;;;5095808;28;20456;-89
2021/03/25 11:07:55;;;;;;;16.23;6.77;;;21.40;23.50;;;;;;5096620;28;20492;-89
2021/03/25 11:10:25;;;;;;;14.10;6.37;;;21.30;23.60;;;;;;5097537;28;20983;-90
2021/03/25 11:12:58;;;;;;;13.43;6.53;;;21.40;23.90;;;;;;5100398;28;20537;-89
2021/03/25 11:15:34;;;;;;;13.00;5.90;;;21.50;23.70;;;;;;5098902;28;20499;-89
2021/03/25 11:18:12;;;;;;;20.43;6.20;;;21.60;23.90;;;;;;5099447;28;20422;-88
2021/03/25 11:20:39;;;;;;;26.13;5.63;;;21.70;23.50;;;;;;5099624;28;20422;-90
2021/03/25 11:23:06;;;;;;;11.93;5.93;;;21.60;23.70;;;;;;5096576;28;20943;-89
2021/03/25 11:25:35;;;;;;;16.20;5.90;;;21.80;23.50;;;;;;5082572;28;20532;-88
2021/03/25 11:28:05;;;;;;;13.53;6.27;;;21.90;23.70;;;;;;5098500;28;20460;-89
2021/03/25 11:30:39;;;;;;;12.40;5.40;;;22.10;23.30;;;;;;5098828;28;20434;-90
2021/03/25 11:33:25;;;;;;;10.30;4.23;;;22.00;22.80;;;;;;5099002;28;20525;-89
2021/03/25 11:35:52;;;;;;;9.23;4.80;;;21.70;22.90;;;;;;5098145;28;20957;-89
2021/03/25 11:38:28;;;;;;;12.03;5.73;;;21.60;23.30;;;;;;5098968;28;20533;-89
2021/03/25 11:40:57;;;;;;;19.83;6.33;;;21.70;23.50;;;;;;5098517;28;20466;-89
2021/03/25 11:43:26;;;;;;;11.93;6.20;;;21.70;22.60;;;;;;5097774;28;20554;-89
2021/03/25 11:45:53;;;;;;;16.00;6.80;;;22.00;22.80;;;;;;5098653;28;20450;-89
2021/03/25 11:48:25;;;;;;;11.47;6.60;;;21.90;23.10;;;;;;5090708;28;20470;-88
2021/03/25 11:50:54;;;;;;;17.43;6.97;;;22.10;22.50;;;;;;5086359;28;20474;-88
2021/03/25 11:53:40;;;;;;;10.87;6.40;;;22.00;23.30;;;;;;5097669;28;20481;-88
2021/03/25 11:56:20;;;;;;;11.93;6.67;;;22.00;23.00;;;;;;5098099;28;20475;-88
2021/03/25 11:58:50;;;;;;;15.70;6.60;;;21.90;22.80;;;;;;5099549;28;20495;-88
2021/03/25 12:01:24;;;;;;;17.70;6.63;;;22.10;23.20;;;;;;5104675;28;20446;-90
2021/03/25 12:03:53;;;;;;;17.20;7.97;;;22.10;23.00;;;;;;5100990;28;20478;-90
2021/03/25 12:06:26;;;;;;;17.50;7.53;;;22.10;22.30;;;;;;5100961;28;20478;-89
2021/03/25 12:09:11;;;;;;;11.47;6.93;;;22.00;22.30;;;;;;5104022;28;20452;-89
2021/03/25 12:11:39;;;;;;;14.20;6.23;;;22.10;23.10;;;;;;5102253;28;20474;-88
2021/03/25 12:14:07;;;;;;;9.90;6.17;;;21.80;22.30;;;;;;5102312;28;20891;-89
2021/03/25 12:16:35;;;;;;;14.47;7.00;;;21.80;22.70;;;;;;5101973;28;20476;-89
2021/03/25 12:19:02;;;;;;;15.90;7.87;;;21.80;22.30;;;;;;5100495;28;20480;-89
2021/03/25 12:21:30;;;;;;;8.60;5.27;;;21.70;22.40;;;;;;5100577;28;20489;-89
2021/03/25 12:23:58;;;;;;;12.70;6.37;;;21.90;23.50;;;;;;5101100;28;20577;-89
2021/03/25 12:26:26;;;;;;;11.83;5.87;;;22.20;21.50;;;;;;5083998;28;20443;-89
2021/03/25 12:28:53;;;;;;;7.57;4.37;;;22.30;21.60;;;;;;5080499;28;20456;-89
2021/03/25 12:31:21;;;;;;;8.13;3.60;;;22.20;20.90;;;;;;5081422;28;20447;-89
2021/03/25 12:33:47;;;;;;;7.17;4.43;;;22.00;20.90;;;;;;5082231;28;20455;-89
2021/03/25 12:36:16;;;;;;;5.57;3.77;;;22.10;21.00;;;;;;5080587;28;20475;-88
2021/03/25 12:38:42;;;;;;;12.90;4.37;;;22.00;21.20;;;;;;5096820;28;20451;-89
2021/03/25 12:41:17;;;;;;;8.47;4.30;;;21.80;21.40;;;;;;5102267;28;20502;-89
2021/03/25 12:43:44;;;;;;;5.60;3.40;;;21.80;21.20;;;;;;5101068;28;20485;-89
2021/03/25 12:46:10;;;;;;;5.43;3.97;;;21.90;22.00;;;;;;5098694;28;20450;-90
2021/03/25 12:48:36;;;;;;;5.83;3.73;;;21.90;20.80;;;;;;5100265;28;20469;-89
2021/03/25 12:51:05;;;;;;;5.70;4.13;;;21.70;20.90;;;;;;5096867;28;20999;-89
2021/03/25 12:53:34;;;;;;;6.57;4.47;;;21.70;21.10;;;;;;5098894;28;20533;-89
2021/03/25 12:56:03;;;;;;;8.60;3.97;;;21.60;21.10;;;;;;5096776;28;20477;-89
2021/03/25 12:58:34;;;;;;;5.60;3.73;;;21.70;21.30;;;;;;5097407;28;20461;-89
2021/03/25 13:01:06;;;;;;;4.77;3.43;;;21.80;21.10;;;;;;5095999;28;20484;-90
2021/03/25 13:03:33;;;;;;;4.30;3.40;;;22.10;21.10;;;;;;5095860;28;20918;-90
2021/03/25 13:06:00;;;;;;;4.90;3.10;;;22.10;20.50;;;;;;5104819;28;20545;-89
2021/03/25 13:08:26;;;;;;;7.40;3.70;;;22.00;20.80;;;;;;5082520;28;20432;-89
2021/03/25 13:10:54;;;;;;;4.57;3.27;;;21.70;19.90;;;;;;5100087;28;20455;-90
2021/03/25 13:13:20;;;;;;;6.20;2.80;;;22.00;19.40;;;;;;5104310;28;20469;-90
2021/03/25 13:15:47;;;;;;;3.20;2.90;;;22.00;20.20;;;;;;5104216;28;20429;-90
2021/03/25 13:18:13;;;;;;;4.40;3.03;;;22.20;19.60;;;;;;5086851;28;20442;-89
2021/03/25 13:20:40;;;;;;;9.30;2.90;;;22.10;18.30;;;;;;5079522;28;20439;-89
2021/03/25 13:23:07;;;;;;;7.93;3.07;;;21.80;19.20;;;;;;5080212;28;20443;-89
2021/03/25 13:25:36;;;;;;;3.40;2.80;;;21.80;19.40;;;;;;5076090;28;20863;-89